Disclaimer

Please do not use the information listed here in-flight or in-navigation, as they are not provided to us by the airports but are provided by volunteers, so they might be outdated.

Search


Regions


Airport information page

Radio informations:
REMOTE - 118.5 MHz

Airport informations:
Latitude: 24° 28' 01.00" N
Longitude: 122° 58' 40.00" E
Elevation: 70 feet - 21 meters
Operating hours: Remarks
Operating agency: Civil government, landing fees and diplomatic clearance may be required
Timezone: UTC+9
Fuel: N/A

Runway information:
08/26 - 4920 x 150 feet< - >1500 x 46 meters

Recent METARs:
ROYN 210000Z AUTO 14011KT 9999 NCD 25/20 Q1017
ROYN 210100Z AUTO 15010KT 110V170 9999 NCD 25/20 Q1017
ROYN 210100Z AUTO 15010KT 110V170 9999 NCD 25/20 Q1017

Airport on the map: